createdAt,value
2018-07-10T00:01:08.753Z,61.40
2018-07-10T00:04:07.493Z,61.40
2018-07-10T00:06:54.175Z,61.40
2018-07-10T00:11:38.075Z,61.40
2018-07-10T00:16:34.886Z,61.30
2018-07-10T00:19:03.453Z,61.30
2018-07-10T00:21:32.060Z,61.30
2018-07-10T00:24:00.678Z,61.30
2018-07-10T00:26:29.249Z,61.10
2018-07-10T00:28:57.929Z,61.70
2018-07-10T00:31:26.550Z,61.30
2018-07-10T00:33:55.105Z,61.30
2018-07-10T00:36:23.752Z,61.50
2018-07-10T00:39:01.233Z,61.40
2018-07-10T00:41:33.422Z,61.60
2018-07-10T00:44:02.912Z,61.60
2018-07-10T00:46:33.173Z,61.60
2018-07-10T00:49:01.785Z,62.30
2018-07-10T00:51:31.594Z,61.50
2018-07-10T00:54:00.186Z,61.40
2018-07-10T00:56:28.815Z,61.30
2018-07-10T00:58:57.491Z,61.40
2018-07-10T01:01:26.726Z,61.50
2018-07-10T01:03:55.274Z,61.40
2018-07-10T01:06:23.969Z,61.50
2018-07-10T01:08:52.571Z,61.60
2018-07-10T01:11:21.458Z,61.70
2018-07-10T01:13:50.999Z,61.80
2018-07-10T01:16:35.110Z,61.80
2018-07-10T01:19:08.886Z,61.90
2018-07-10T01:21:37.917Z,61.90
2018-07-10T01:24:06.509Z,61.90
2018-07-10T01:26:37.211Z,61.90
2018-07-10T01:29:12.427Z,61.90
2018-07-10T01:31:42.602Z,61.90
2018-07-10T01:34:11.176Z,61.80
2018-07-10T01:37:11.949Z,61.90
2018-07-10T01:39:41.025Z,62.00
2018-07-10T01:42:09.642Z,62.10
2018-07-10T01:44:38.250Z,62.20
2018-07-10T01:47:06.891Z,62.20
2018-07-10T01:49:35.545Z,62.20
2018-07-10T01:52:04.198Z,62.30
2018-07-10T01:54:32.763Z,62.40
2018-07-10T01:57:01.382Z,62.50
2018-07-10T01:59:30.017Z,62.50
2018-07-10T02:01:58.742Z,62.50
2018-07-10T02:04:27.389Z,62.50
2018-07-10T02:06:56.146Z,62.50
2018-07-10T02:09:24.770Z,62.60
2018-07-10T02:11:53.341Z,62.60
2018-07-10T02:14:22.106Z,62.70
2018-07-10T02:16:50.770Z,62.70
2018-07-10T02:19:20.345Z,62.70
2018-07-10T02:21:48.974Z,62.50
2018-07-10T02:24:21.795Z,62.50
2018-07-10T02:26:51.011Z,62.60
2018-07-10T02:29:20.476Z,62.60
2018-07-10T02:31:49.883Z,62.80
2018-07-10T02:34:18.498Z,62.60
2018-07-10T02:36:47.121Z,62.70
2018-07-10T02:39:16.600Z,62.70
2018-07-10T02:44:13.528Z,62.80
2018-07-10T02:46:42.139Z,62.80
2018-07-10T02:49:16.834Z,62.70
2018-07-10T02:51:47.519Z,62.80
2018-07-10T02:54:16.827Z,62.80
2018-07-10T02:56:47.019Z,63.00
2018-07-10T02:59:15.660Z,62.70
2018-07-10T03:01:44.270Z,62.60
2018-07-10T03:04:12.904Z,62.60
2018-07-10T03:06:41.535Z,62.60
2018-07-10T03:09:10.287Z,62.50
2018-07-10T03:11:38.874Z,62.40
2018-07-10T03:14:09.291Z,62.30
2018-07-10T03:16:38.523Z,62.40
2018-07-10T03:19:08.153Z,62.40
2018-07-10T03:21:36.756Z,62.40
2018-07-10T03:24:05.403Z,62.30
2018-07-10T03:26:34.016Z,62.70
2018-07-10T03:29:02.688Z,62.30
2018-07-10T03:31:31.299Z,62.20
2018-07-10T03:34:00.066Z,62.20
2018-07-10T03:36:28.769Z,62.30
2018-07-10T03:38:57.371Z,62.30
2018-07-10T03:41:26.151Z,62.50
2018-07-10T03:43:54.785Z,62.40
2018-07-10T03:46:23.808Z,62.60
2018-07-10T03:48:52.433Z,62.50
2018-07-10T03:51:21.074Z,62.50
2018-07-10T03:53:50.001Z,62.50
2018-07-10T03:58:48.313Z,63.30
2018-07-10T04:01:16.942Z,62.60
2018-07-10T04:03:45.547Z,62.60
2018-07-10T04:06:14.201Z,62.70
2018-07-10T04:08:42.827Z,62.70
2018-07-10T04:11:11.459Z,62.80
2018-07-10T04:13:41.357Z,62.90
2018-07-10T04:16:10.348Z,62.90
2018-07-10T04:18:38.959Z,62.90
2018-07-10T04:21:31.361Z,62.80
2018-07-10T04:24:20.055Z,62.90
2018-07-10T04:27:03.872Z,62.90
2018-07-10T04:29:39.949Z,62.90
2018-07-10T04:32:12.183Z,62.90
2018-07-10T04:34:41.307Z,62.90
2018-07-10T04:37:12.607Z,63.90
2018-07-10T04:39:42.774Z,63.00
2018-07-10T04:42:33.237Z,63.00
2018-07-10T04:47:52.361Z,63.00
2018-07-10T04:50:28.393Z,63.00
2018-07-10T04:53:08.955Z,63.00
2018-07-10T04:55:41.276Z,63.70
2018-07-10T04:58:21.418Z,63.00
2018-07-10T05:00:58.494Z,62.80
2018-07-10T05:03:29.386Z,62.70
2018-07-10T05:06:00.052Z,62.80
2018-07-10T05:08:28.652Z,62.60
2018-07-10T05:10:57.305Z,62.60
2018-07-10T05:13:27.300Z,62.60
2018-07-10T05:16:03.010Z,62.90
2018-07-10T05:18:32.256Z,62.60
2018-07-10T05:21:03.642Z,62.60
2018-07-10T05:23:32.265Z,62.60
2018-07-10T05:26:00.882Z,62.80
2018-07-10T05:28:29.497Z,62.80
2018-07-10T05:31:00.990Z,62.90
2018-07-10T05:33:30.300Z,62.90
2018-07-10T05:35:59.659Z,62.80
2018-07-10T05:38:39.543Z,62.80
2018-07-10T05:41:09.071Z,62.80
2018-07-10T05:43:48.394Z,62.80
2018-07-10T05:46:19.540Z,62.80
2018-07-10T05:49:04.088Z,63.00
2018-07-10T05:51:39.042Z,62.90
2018-07-10T05:54:08.841Z,63.00
2018-07-10T05:56:37.732Z,63.00
2018-07-10T05:59:07.361Z,63.20
2018-07-10T06:01:37.790Z,63.30
2018-07-10T06:04:09.057Z,63.30
2018-07-10T06:06:37.681Z,63.40
2018-07-10T06:09:07.181Z,63.50
2018-07-10T06:11:36.941Z,63.60
2018-07-10T06:14:05.824Z,63.80
2018-07-10T06:16:35.054Z,63.90
2018-07-10T06:19:05.444Z,63.90
2018-07-10T06:21:39.363Z,63.90
2018-07-10T06:24:11.757Z,63.80
2018-07-10T06:26:41.550Z,63.80
2018-07-10T06:29:11.640Z,63.80
2018-07-10T06:31:55.802Z,63.70
2018-07-10T06:34:29.679Z,63.70
2018-07-10T06:37:07.861Z,63.70
2018-07-10T06:39:36.452Z,63.70
2018-07-10T06:44:36.825Z,63.70
2018-07-10T06:47:42.805Z,63.70
2018-07-10T06:50:11.468Z,63.70
2018-07-10T06:52:42.761Z,63.70
2018-07-10T06:55:15.369Z,63.60
2018-07-10T06:57:47.114Z,63.60
2018-07-10T07:00:15.654Z,63.70
2018-07-10T07:02:44.353Z,63.70
2018-07-10T07:05:12.936Z,63.40
2018-07-10T07:07:41.949Z,63.40
2018-07-10T07:10:12.855Z,63.40
2018-07-10T07:12:42.245Z,63.40
2018-07-10T07:15:14.569Z,63.30
2018-07-10T07:17:44.961Z,63.30
2018-07-10T07:20:13.661Z,63.30
2018-07-10T07:22:42.249Z,63.20
2018-07-10T07:25:10.846Z,63.20
2018-07-10T07:27:39.446Z,63.20
2018-07-10T07:30:08.011Z,63.00
2018-07-10T07:32:36.702Z,63.30
2018-07-10T07:35:05.450Z,63.30
2018-07-10T07:37:37.136Z,63.30
2018-07-10T07:40:05.850Z,63.30
2018-07-10T07:42:34.392Z,63.30
2018-07-10T07:45:03.515Z,63.60
2018-07-10T07:47:32.144Z,63.20
2018-07-10T07:50:00.815Z,63.10
2018-07-10T07:52:33.983Z,63.20
2018-07-10T07:55:05.474Z,63.10
2018-07-10T07:57:34.118Z,63.30
2018-07-10T08:00:02.749Z,63.20
2018-07-10T08:02:31.350Z,63.20
2018-07-10T08:05:00.056Z,62.60
2018-07-10T08:07:28.838Z,62.60
2018-07-10T08:09:58.377Z,62.60
2018-07-10T08:12:28.790Z,62.60
2018-07-10T08:14:59.797Z,63.50
2018-07-10T08:17:29.375Z,62.90
2018-07-10T08:19:59.269Z,63.00
2018-07-10T08:22:28.724Z,62.60
2018-07-10T08:24:57.388Z,62.60
2018-07-10T08:27:27.059Z,62.60
2018-07-10T08:29:56.854Z,62.60
2018-07-10T08:32:27.310Z,62.60
2018-07-10T08:34:56.166Z,62.60
2018-07-10T08:37:24.784Z,62.80
2018-07-10T08:39:53.383Z,62.30
2018-07-10T08:42:21.994Z,62.30
2018-07-10T08:44:50.622Z,62.30
2018-07-10T08:47:19.238Z,62.20
2018-07-10T08:49:48.527Z,62.40
2018-07-10T08:52:17.156Z,62.50
2018-07-10T08:54:45.817Z,62.70
2018-07-10T08:57:15.416Z,62.40
2018-07-10T08:59:44.106Z,62.40
2018-07-10T09:02:12.729Z,62.30
2018-07-10T09:04:41.417Z,62.20
2018-07-10T09:07:10.048Z,62.10
2018-07-10T09:09:38.653Z,62.20
2018-07-10T09:12:07.237Z,62.20
2018-07-10T09:14:35.830Z,62.10
2018-07-10T09:17:04.976Z,62.10
2018-07-10T09:19:33.563Z,62.10
2018-07-10T09:24:41.053Z,63.10
2018-07-10T09:27:10.933Z,62.20
2018-07-10T09:29:39.774Z,62.10
2018-07-10T09:32:09.485Z,61.90
2018-07-10T09:34:38.123Z,62.00
2018-07-10T09:37:11.111Z,61.90
2018-07-10T09:39:39.750Z,61.90
2018-07-10T09:42:08.529Z,61.40
2018-07-10T09:44:37.348Z,61.40
2018-07-10T09:47:05.961Z,61.60
2018-07-10T09:49:34.543Z,61.60
2018-07-10T09:52:03.199Z,61.60
2018-07-10T09:54:31.942Z,61.50
2018-07-10T09:57:00.637Z,61.30
2018-07-10T09:59:29.364Z,61.50
2018-07-10T10:02:02.494Z,61.50
2018-07-10T10:04:31.654Z,61.60
2018-07-10T10:09:28.520Z,62.20
2018-07-10T10:11:57.691Z,61.40
2018-07-10T10:14:26.263Z,61.60
2018-07-10T10:16:54.906Z,61.00
2018-07-10T10:19:23.543Z,60.50
2018-07-10T10:21:52.231Z,59.80
2018-07-10T10:24:20.858Z,59.80
2018-07-10T10:26:49.510Z,59.70
2018-07-10T10:29:18.103Z,59.60
2018-07-10T10:31:46.731Z,59.80
2018-07-10T10:34:15.350Z,59.80
2018-07-10T10:36:44.040Z,59.80
2018-07-10T10:39:12.687Z,59.60
2018-07-10T10:41:41.333Z,59.40
2018-07-10T10:44:09.992Z,59.50
2018-07-10T10:46:38.673Z,59.30
2018-07-10T10:49:07.382Z,59.20
2018-07-10T10:51:36.034Z,58.40
2018-07-10T10:54:04.682Z,58.20
2018-07-10T10:59:02.019Z,57.60
2018-07-10T11:01:31.005Z,57.90
2018-07-10T11:03:59.685Z,59.10
2018-07-10T11:06:29.927Z,58.40
2018-07-10T11:08:58.876Z,58.50
2018-07-10T11:11:29.058Z,58.00
2018-07-10T11:13:57.686Z,57.20
2018-07-10T11:16:26.349Z,57.60
2018-07-10T11:19:00.668Z,57.90
2018-07-10T11:21:44.140Z,57.60
2018-07-10T11:24:15.620Z,58.10
2018-07-10T11:26:45.712Z,58.40
2018-07-10T11:29:14.855Z,58.50
2018-07-10T11:31:43.503Z,58.40
2018-07-10T11:34:12.380Z,58.30
2018-07-10T11:36:41.148Z,58.70
2018-07-10T11:39:11.562Z,58.50
2018-07-10T11:41:45.643Z,58.60
2018-07-10T11:44:14.231Z,58.70
2018-07-10T11:46:42.862Z,58.30
2018-07-10T11:49:11.524Z,58.40
2018-07-10T11:51:40.229Z,58.10
2018-07-10T11:54:08.804Z,57.90
2018-07-10T11:56:37.522Z,58.10
2018-07-10T11:59:06.946Z,58.40
2018-07-10T12:01:36.259Z,58.80
2018-07-10T12:04:05.513Z,58.50
2018-07-10T12:06:43.994Z,58.70
2018-07-10T12:09:12.629Z,58.10
2018-07-10T12:11:41.831Z,58.90
2018-07-10T12:14:10.437Z,58.70
2018-07-10T12:16:39.036Z,58.80
2018-07-10T12:19:07.630Z,58.40
2018-07-10T12:21:36.235Z,58.00
2018-07-10T12:26:33.205Z,56.90
2018-07-10T12:29:02.150Z,56.50
2018-07-10T12:31:30.812Z,56.80
2018-07-10T12:33:59.455Z,56.90
2018-07-10T12:36:28.078Z,57.60
2018-07-10T12:38:56.715Z,57.30
2018-07-10T12:43:53.721Z,58.20
2018-07-10T12:46:22.319Z,57.80
2018-07-10T12:48:50.898Z,57.40
2018-07-10T12:51:19.548Z,57.30
2018-07-10T12:53:48.241Z,56.50
2018-07-10T12:56:17.775Z,55.60
2018-07-10T12:58:46.382Z,54.90
2018-07-10T13:01:15.192Z,54.90
2018-07-10T13:03:44.218Z,55.00
2018-07-10T13:06:12.934Z,54.90
2018-07-10T13:08:41.689Z,55.40
2018-07-10T13:11:10.296Z,56.10
2018-07-10T13:13:38.946Z,56.10
2018-07-10T13:18:35.813Z,56.00
2018-07-10T13:21:04.731Z,56.30
2018-07-10T13:23:33.375Z,56.00
2018-07-10T13:26:01.988Z,55.40
2018-07-10T13:28:30.895Z,56.10
2018-07-10T13:30:59.986Z,55.60
2018-07-10T13:33:28.637Z,55.60
2018-07-10T13:35:57.568Z,55.50
2018-07-10T13:38:26.195Z,55.30
2018-07-10T13:40:58.006Z,55.10
2018-07-10T13:43:26.767Z,55.00
2018-07-10T13:45:55.454Z,55.00
2018-07-10T13:48:24.370Z,55.30
2018-07-10T13:50:52.958Z,55.10
2018-07-10T13:53:21.611Z,55.10
2018-07-10T13:55:50.164Z,55.00
2018-07-10T13:58:22.165Z,55.50
2018-07-10T14:00:54.831Z,55.70
2018-07-10T14:03:23.584Z,55.70
2018-07-10T14:05:52.239Z,55.40
2018-07-10T14:08:20.870Z,55.10
2018-07-10T14:10:49.524Z,55.00
2018-07-10T14:13:18.211Z,55.10
2018-07-10T14:15:46.875Z,55.50
2018-07-10T14:18:16.170Z,55.40
2018-07-10T14:23:14.262Z,55.90
2018-07-10T14:25:43.169Z,56.20
2018-07-10T14:28:13.332Z,56.60
2018-07-10T14:30:42.113Z,56.70
2018-07-10T14:33:10.914Z,57.10
2018-07-10T14:35:40.245Z,57.30
2018-07-10T14:38:11.271Z,57.60
2018-07-10T14:40:43.916Z,57.90
2018-07-10T14:43:14.783Z,58.10
2018-07-10T14:45:43.446Z,58.40
2018-07-10T14:48:12.287Z,58.50
2018-07-10T14:50:41.006Z,58.80
2018-07-10T14:53:09.626Z,59.00
2018-07-10T14:55:38.247Z,59.20
2018-07-10T14:58:06.900Z,59.40
2018-07-10T15:00:35.556Z,59.90
2018-07-10T15:03:04.204Z,60.30
2018-07-10T15:05:32.833Z,60.80
2018-07-10T15:08:01.447Z,61.30
2018-07-10T15:10:30.053Z,61.40
2018-07-10T15:12:58.662Z,61.60
2018-07-10T15:15:27.243Z,62.50
2018-07-10T15:18:01.216Z,62.60
2018-07-10T15:20:29.842Z,63.00
2018-07-10T15:22:59.306Z,63.50
2018-07-10T15:25:27.898Z,63.80
2018-07-10T15:27:56.847Z,64.00
2018-07-10T15:30:25.490Z,64.40
2018-07-10T15:32:54.313Z,64.80
2018-07-10T15:35:22.955Z,65.60
2018-07-10T15:37:51.907Z,65.50
2018-07-10T15:40:20.884Z,65.40
2018-07-10T15:42:49.513Z,66.10
2018-07-10T15:45:18.578Z,65.90
2018-07-10T15:47:47.110Z,66.80
2018-07-10T15:50:15.747Z,66.10
2018-07-10T15:52:44.402Z,66.40
2018-07-10T15:55:13.039Z,66.60
2018-07-10T15:57:41.614Z,67.00
2018-07-10T16:00:10.200Z,67.50
2018-07-10T16:02:38.834Z,67.90
2018-07-10T16:05:07.676Z,68.00
2018-07-10T16:07:37.013Z,68.00
2018-07-10T16:10:05.626Z,68.20
2018-07-10T16:12:34.802Z,68.40
2018-07-10T16:15:03.632Z,68.10
2018-07-10T16:17:32.256Z,68.10
2018-07-10T16:20:08.349Z,68.30
2018-07-10T16:22:40.089Z,68.10
2018-07-10T16:27:46.010Z,68.30
2018-07-10T16:30:19.751Z,68.30
2018-07-10T16:32:48.600Z,68.50
2018-07-10T16:35:17.646Z,68.30
2018-07-10T16:37:46.935Z,68.70
2018-07-10T16:40:15.579Z,68.90
2018-07-10T16:42:51.684Z,69.30
2018-07-10T16:45:29.100Z,69.00
2018-07-10T16:48:09.512Z,69.60
2018-07-10T16:50:41.291Z,69.70
2018-07-10T16:53:12.482Z,69.20
2018-07-10T16:55:41.452Z,68.90
2018-07-10T16:58:10.107Z,69.00
2018-07-10T17:00:38.838Z,70.00
2018-07-10T17:03:07.576Z,69.40
2018-07-10T17:05:36.237Z,69.10
2018-07-10T17:08:05.103Z,69.00
2018-07-10T17:10:33.937Z,69.00
2018-07-10T17:13:03.213Z,69.10
2018-07-10T17:15:31.970Z,69.10
2018-07-10T17:18:00.632Z,69.10
2018-07-10T17:20:29.300Z,69.10
2018-07-10T17:22:57.992Z,69.10
2018-07-10T17:25:27.250Z,69.00
2018-07-10T17:27:55.948Z,69.10
2018-07-10T17:30:24.584Z,69.10
2018-07-10T17:32:53.356Z,69.00
2018-07-10T17:35:22.022Z,69.20
2018-07-10T17:37:51.037Z,69.20
2018-07-10T17:40:20.400Z,69.30
2018-07-10T17:42:49.904Z,69.40
2018-07-10T17:45:22.101Z,69.50
2018-07-10T17:47:51.176Z,69.50
2018-07-10T17:50:19.910Z,69.60
2018-07-10T17:52:48.661Z,69.60
2018-07-10T17:55:17.239Z,69.60
2018-07-10T17:57:45.915Z,69.80
2018-07-10T18:00:14.525Z,69.80
2018-07-10T18:02:43.142Z,69.80
2018-07-10T18:05:11.785Z,69.90
2018-07-10T18:07:40.429Z,69.90
2018-07-10T18:10:09.043Z,70.00
2018-07-10T18:12:37.631Z,70.20
2018-07-10T18:15:06.300Z,70.10
2018-07-10T18:20:03.236Z,70.30
2018-07-10T18:22:31.887Z,70.30
2018-07-10T18:25:00.506Z,70.30
2018-07-10T18:27:29.133Z,70.40
2018-07-10T18:29:57.797Z,70.40
2018-07-10T18:32:26.436Z,70.40
2018-07-10T18:34:55.079Z,70.60
2018-07-10T18:39:51.937Z,70.70
2018-07-10T18:42:20.697Z,71.50
2018-07-10T18:44:49.214Z,70.90
2018-07-10T18:47:17.789Z,71.00
2018-07-10T18:49:48.360Z,71.10
2018-07-10T18:52:21.394Z,71.20
2018-07-10T18:54:50.021Z,71.20
2018-07-10T18:57:31.324Z,71.40
2018-07-10T19:00:04.998Z,71.50
2018-07-10T19:03:11.379Z,71.70
2018-07-10T19:05:48.291Z,71.70
2018-07-10T19:08:17.017Z,71.80
2018-07-10T19:10:46.875Z,71.80
2018-07-10T19:13:16.785Z,71.90
2018-07-10T19:15:46.831Z,72.00
2018-07-10T19:18:16.668Z,72.10
2018-07-10T19:21:04.916Z,72.20
2018-07-10T19:23:45.652Z,72.20
2018-07-10T19:26:14.967Z,73.00
2018-07-10T19:28:45.015Z,72.00
2018-07-10T19:31:19.067Z,72.00
2018-07-10T19:33:52.890Z,72.00
2018-07-10T19:36:21.524Z,72.20
2018-07-10T19:41:20.838Z,72.30
2018-07-10T19:46:18.097Z,72.10
2018-07-10T19:48:50.430Z,72.10
2018-07-10T19:51:22.368Z,72.30
2018-07-10T19:53:59.087Z,72.30
2018-07-10T19:56:28.283Z,72.30
2018-07-10T19:58:58.645Z,72.40
2018-07-10T20:01:41.545Z,72.20
2018-07-10T20:05:16.094Z,72.20
2018-07-10T20:10:20.829Z,72.50
2018-07-10T20:12:55.881Z,72.60
2018-07-10T20:15:30.851Z,72.70
2018-07-10T20:19:09.750Z,72.60
2018-07-10T20:23:54.360Z,72.60
2018-07-10T20:27:33.050Z,72.80
2018-07-10T20:30:14.239Z,73.00
2018-07-10T20:32:52.834Z,73.10
2018-07-10T20:35:31.641Z,73.00
2018-07-10T20:38:00.357Z,73.00
2018-07-10T20:40:36.393Z,73.00
2018-07-10T20:43:14.695Z,73.30
2018-07-10T20:45:47.900Z,73.30
2018-07-10T20:49:33.434Z,73.30
2018-07-10T20:52:05.191Z,73.40
2018-07-10T20:55:08.010Z,73.60
2018-07-10T20:57:45.921Z,73.70
2018-07-10T21:00:15.687Z,73.90
2018-07-10T21:03:22.012Z,74.00
2018-07-10T21:05:51.903Z,74.00
2018-07-10T21:08:29.768Z,74.00
2018-07-10T21:11:14.452Z,74.10
2018-07-10T21:13:53.142Z,74.30
2018-07-10T21:16:29.755Z,74.40
2018-07-10T21:19:07.637Z,74.70
2018-07-10T21:21:50.574Z,74.80
2018-07-10T21:24:30.149Z,74.90
2018-07-10T21:27:10.474Z,74.90
2018-07-10T21:29:50.168Z,74.90
2018-07-10T21:32:27.181Z,74.90
2018-07-10T21:34:55.829Z,75.10
2018-07-10T21:39:37.141Z,75.10
2018-07-10T21:42:27.649Z,75.20
2018-07-10T21:52:37.026Z,74.90
2018-07-10T21:55:05.581Z,75.40
2018-07-10T21:57:38.593Z,76.30
2018-07-10T22:00:07.223Z,76.40
2018-07-10T22:02:35.914Z,75.80
2018-07-10T22:05:04.554Z,75.80
2018-07-10T22:07:33.235Z,76.00
2018-07-10T22:10:04.444Z,76.70
2018-07-10T22:12:39.343Z,77.00
2018-07-10T22:15:07.932Z,76.30
2018-07-10T22:17:38.255Z,76.40
2018-07-10T22:20:08.462Z,76.50
2018-07-10T22:22:37.069Z,76.50
2018-07-10T22:25:07.173Z,76.70
2018-07-10T22:27:38.393Z,76.80
2018-07-10T22:30:12.276Z,76.80
2018-07-10T22:32:46.140Z,76.90
2018-07-10T22:35:16.201Z,77.00
2018-07-10T22:37:45.110Z,76.90
2018-07-10T22:40:14.230Z,77.00
2018-07-10T22:42:42.822Z,77.20
2018-07-10T22:45:11.539Z,77.20
2018-07-10T22:47:41.606Z,77.10
2018-07-10T22:50:16.363Z,77.10
2018-07-10T22:52:47.666Z,77.30
2018-07-10T22:55:19.769Z,77.40
2018-07-10T22:57:48.427Z,77.30
2018-07-10T23:00:23.278Z,77.30
2018-07-10T23:02:51.857Z,77.40
2018-07-10T23:05:20.531Z,77.50
2018-07-10T23:07:49.143Z,78.00
2018-07-10T23:10:17.814Z,77.50
2018-07-10T23:12:46.433Z,77.30
2018-07-10T23:15:15.602Z,77.40
2018-07-10T23:17:44.199Z,77.40
2018-07-10T23:20:12.859Z,77.50
2018-07-10T23:22:52.968Z,77.50
2018-07-10T23:25:22.910Z,77.60
2018-07-10T23:27:52.330Z,77.60
2018-07-10T23:30:21.014Z,77.60
2018-07-10T23:32:49.630Z,77.70
2018-07-10T23:35:18.275Z,77.80
2018-07-10T23:37:51.453Z,77.80
2018-07-10T23:40:21.253Z,77.80
2018-07-10T23:42:50.046Z,77.70
2018-07-10T23:45:25.265Z,77.80
2018-07-10T23:47:57.672Z,77.90
2018-07-10T23:50:28.900Z,77.90
2018-07-10T23:54:00.982Z,77.90
2018-07-10T23:56:29.634Z,78.00
2018-07-10T23:58:58.269Z,77.90
